Terminal Aerodrome Forecast
Issued by NWS Pocatello, ID

Home | Current Version | Previous Version | Text Only | Print | Product List | Glossary On
Versions: 1 2 3 4 5 6 7 8 9 10 11 12 13 14 15 16
734
FTUS45 KPIH 301120
TAFIDA
TAF
KIDA 301120Z 3012/0112 22011KT P6SM SCT060 BKN090 BKN120
     FM302000 22015G25KT P6SM VCSH BKN060 BKN080
     FM010300 21014KT P6SM VCSH SCT060 BKN080=

USA.gov is the U.S. government's official web portal to all federal, state and local government web resources and services.